sensor_id;sensor_type;location;lat;lon;timestamp;pressure;altitude;pressure_sealevel;temperature;humidity
50852;BME280;43953;45.508;-122.806;2023-07-31T00:00:21;101059.84;;;25.93;36.44
50852;BME280;43953;45.508;-122.806;2023-07-31T00:00:52;101066.19;;;25.93;36.78
50852;BME280;43953;45.508;-122.806;2023-07-31T00:01:24;101062.31;;;25.94;36.92
50852;BME280;43953;45.508;-122.806;2023-07-31T00:01:56;101058.72;;;25.94;36.40
50852;BME280;43953;45.508;-122.806;2023-07-31T00:02:27;101068.66;;;25.95;36.50
50852;BME280;43953;45.508;-122.806;2023-07-31T00:02:59;101063.13;;;25.95;36.66
50852;BME280;43953;45.508;-122.806;2023-07-31T00:03:31;101063.94;;;25.95;36.62
50852;BME280;43953;45.508;-122.806;2023-07-31T00:04:02;101070.28;;;25.96;36.88
50852;BME280;43953;45.508;-122.806;2023-07-31T00:04:34;101054.53;;;25.96;36.19
50852;BME280;43953;45.508;-122.806;2023-07-31T00:05:06;101057.28;;;25.96;36.44
50852;BME280;43953;45.508;-122.806;2023-07-31T00:05:38;101061.69;;;25.97;36.42
50852;BME280;43953;45.508;-122.806;2023-07-31T00:06:09;101059.75;;;25.98;36.47
50852;BME280;43953;45.508;-122.806;2023-07-31T00:06:41;101059.75;;;25.98;36.37
50852;BME280;43953;45.508;-122.806;2023-07-31T00:07:13;101065.28;;;25.98;36.65
50852;BME280;43953;45.508;-122.806;2023-07-31T00:07:44;101060.56;;;25.98;36.47
50852;BME280;43953;45.508;-122.806;2023-07-31T00:08:16;101064.97;;;25.99;36.33
50852;BME280;43953;45.508;-122.806;2023-07-31T00:08:48;101065.78;;;26.00;36.80
50852;BME280;43953;45.508;-122.806;2023-07-31T00:09:19;101055.56;;;26.00;36.59
50852;BME280;43953;45.508;-122.806;2023-07-31T00:09:51;101061.91;;;26.01;36.43
50852;BME280;43953;45.508;-122.806;2023-07-31T00:10:24;101061.09;;;26.00;36.38
50852;BME280;43953;45.508;-122.806;2023-07-31T00:10:56;101061.09;;;26.00;36.68
50852;BME280;43953;45.508;-122.806;2023-07-31T00:11:28;101055.56;;;26.00;36.59
50852;BME280;43953;45.508;-122.806;2023-07-31T00:11:59;101060.25;;;26.00;36.47
50852;BME280;43953;45.508;-122.806;2023-07-31T00:12:31;101052.81;;;26.00;36.28
50852;BME280;43953;45.508;-122.806;2023-07-31T00:13:03;101059.16;;;26.01;36.64
50852;BME280;43953;45.508;-122.806;2023-07-31T00:13:35;101055.25;;;26.02;36.45
50852;BME280;43953;45.508;-122.806;2023-07-31T00:14:07;101056.06;;;26.02;36.24
50852;BME280;43953;45.508;-122.806;2023-07-31T00:14:38;101054.97;;;26.03;36.21
50852;BME280;43953;45.508;-122.806;2023-07-31T00:15:10;101054.97;;;26.03;36.42
50852;BME280;43953;45.508;-122.806;2023-07-31T00:15:42;101046.69;;;26.03;36.23
50852;BME280;43953;45.508;-122.806;2023-07-31T00:16:14;101052.69;;;26.05;36.53
50852;BME280;43953;45.508;-122.806;2023-07-31T00:16:45;101052.69;;;26.05;36.42
50852;BME280;43953;45.508;-122.806;2023-07-31T00:17:17;101043.59;;;26.05;36.33
50852;BME280;43953;45.508;-122.806;2023-07-31T00:17:49;101048.84;;;26.06;36.35
50852;BME280;43953;45.508;-122.806;2023-07-31T00:18:21;101046.91;;;26.07;36.46
50852;BME280;43953;45.508;-122.806;2023-07-31T00:18:53;101051.59;;;26.06;36.29
50852;BME280;43953;45.508;-122.806;2023-07-31T00:19:24;101055.16;;;26.07;36.15
50852;BME280;43953;45.508;-122.806;2023-07-31T00:19:56;101051.28;;;26.08;36.46
50852;BME280;43953;45.508;-122.806;2023-07-31T00:20:28;101046.56;;;26.08;36.27
50852;BME280;43953;45.508;-122.806;2023-07-31T00:21:00;101052.09;;;26.08;36.22
50852;BME280;43953;45.508;-122.806;2023-07-31T00:21:31;101054.03;;;26.08;36.17
50852;BME280;43953;45.508;-122.806;2023-07-31T00:22:03;101047.41;;;26.09;36.16
50852;BME280;43953;45.508;-122.806;2023-07-31T00:22:36;101048.22;;;26.09;36.21
50852;BME280;43953;45.508;-122.806;2023-07-31T00:23:07;101045.97;;;26.12;36.15
50852;BME280;43953;45.508;-122.806;2023-07-31T00:23:39;101046.81;;;26.12;35.18
50852;BME280;43953;45.508;-122.806;2023-07-31T00:24:11;101046.81;;;26.12;35.37
50852;BME280;43953;45.508;-122.806;2023-07-31T00:24:42;101051.72;;;26.15;35.44
50852;BME280;43953;45.508;-122.806;2023-07-31T00:25:14;101047.00;;;26.16;35.42
50852;BME280;43953;45.508;-122.806;2023-07-31T00:25:46;101051.72;;;26.15;35.51
50852;BME280;43953;45.508;-122.806;2023-07-31T00:26:17;101045.06;;;26.16;35.65
50852;BME280;43953;45.508;-122.806;2023-07-31T00:26:49;101043.44;;;26.15;35.95
50852;BME280;43953;45.508;-122.806;2023-07-31T00:27:21;101047.53;;;26.18;35.68
50852;BME280;43953;45.508;-122.806;2023-07-31T00:27:52;101045.56;;;26.18;35.29
50852;BME280;43953;45.508;-122.806;2023-07-31T00:28:24;101046.69;;;26.17;35.29
50852;BME280;43953;45.508;-122.806;2023-07-31T00:28:56;101045.56;;;26.18;35.50
50852;BME280;43953;45.508;-122.806;2023-07-31T00:29:27;101051.09;;;26.18;35.72
50852;BME280;43953;45.508;-122.806;2023-07-31T00:29:59;101049.16;;;26.19;35.99
50852;BME280;43953;45.508;-122.806;2023-07-31T00:30:31;101051.09;;;26.18;35.93
50852;BME280;43953;45.508;-122.806;2023-07-31T00:31:03;101049.97;;;26.19;35.50
50852;BME280;43953;45.508;-122.806;2023-07-31T00:31:34;101047.19;;;26.19;35.90
50852;BME280;43953;45.508;-122.806;2023-07-31T00:32:06;101042.50;;;26.20;35.79
50852;BME280;43953;45.508;-122.806;2023-07-31T00:32:38;101048.81;;;26.20;35.67
50852;BME280;43953;45.508;-122.806;2023-07-31T00:33:10;101042.50;;;26.20;35.80
50852;BME280;43953;45.508;-122.806;2023-07-31T00:33:44;101046.91;;;26.21;35.54
50852;BME280;43953;45.508;-122.806;2023-07-31T00:34:16;101050.47;;;26.21;35.45
50852;BME280;43953;45.508;-122.806;2023-07-31T00:34:47;101048.81;;;26.20;35.90
50852;BME280;43953;45.508;-122.806;2023-07-31T00:35:19;101043.00;;;26.22;35.51
50852;BME280;43953;45.508;-122.806;2023-07-31T00:35:51;101044.97;;;26.21;35.90
50852;BME280;43953;45.508;-122.806;2023-07-31T00:36:23;101047.41;;;26.23;35.93
50852;BME280;43953;45.508;-122.806;2023-07-31T00:36:54;101037.16;;;26.23;35.65
50852;BME280;43953;45.508;-122.806;2023-07-31T00:37:26;101043.53;;;26.24;35.85
50852;BME280;43953;45.508;-122.806;2023-07-31T00:37:58;101047.91;;;26.25;35.46
50852;BME280;43953;45.508;-122.806;2023-07-31T00:38:30;101044.34;;;26.24;35.08
50852;BME280;43953;45.508;-122.806;2023-07-31T00:39:02;101045.16;;;26.25;35.25
50852;BME280;43953;45.508;-122.806;2023-07-31T00:39:34;101045.97;;;26.25;35.46
50852;BME280;43953;45.508;-122.806;2023-07-31T00:40:07;101046.78;;;26.26;34.83
50852;BME280;43953;45.508;-122.806;2023-07-31T00:40:39;101041.25;;;26.26;35.32
50852;BME280;43953;45.508;-122.806;2023-07-31T00:41:11;101039.63;;;26.25;35.50
50852;BME280;43953;45.508;-122.806;2023-07-31T00:41:42;101045.97;;;26.25;35.60
50852;BME280;43953;45.508;-122.806;2023-07-31T00:42:14;101038.50;;;26.26;35.94
50852;BME280;43953;45.508;-122.806;2023-07-31T00:42:46;101039.31;;;26.26;35.35
50852;BME280;43953;45.508;-122.806;2023-07-31T00:43:17;101041.25;;;26.26;35.56
50852;BME280;43953;45.508;-122.806;2023-07-31T00:43:50;101042.91;;;26.27;35.75
50852;BME280;43953;45.508;-122.806;2023-07-31T00:44:21;101032.16;;;26.25;35.48
50852;BME280;43953;45.508;-122.806;2023-07-31T00:44:53;101028.28;;;26.26;35.32
50852;BME280;43953;45.508;-122.806;2023-07-31T00:45:25;101039.31;;;26.26;35.45
50852;BME280;43953;45.508;-122.806;2023-07-31T00:45:58;101031.88;;;26.27;35.83
50852;BME280;43953;45.508;-122.806;2023-07-31T00:46:30;101046.16;;;26.29;35.37
50852;BME280;43953;45.508;-122.806;2023-07-31T00:47:02;101045.34;;;26.28;35.68
50852;BME280;43953;45.508;-122.806;2023-07-31T00:47:33;101030.75;;;26.28;35.47
50852;BME280;43953;45.508;-122.806;2023-07-31T00:48:05;101040.66;;;26.29;35.04
50852;BME280;43953;45.508;-122.806;2023-07-31T00:48:38;101044.22;;;26.29;35.66
50852;BME280;43953;45.508;-122.806;2023-07-31T00:49:11;101035.94;;;26.29;35.21
50852;BME280;43953;45.508;-122.806;2023-07-31T00:49:43;101041.47;;;26.29;35.15
50852;BME280;43953;45.508;-122.806;2023-07-31T00:50:15;101043.94;;;26.31;35.44
50852;BME280;43953;45.508;-122.806;2023-07-31T00:50:47;101040.88;;;26.32;35.13
50852;BME280;43953;45.508;-122.806;2023-07-31T00:51:19;101040.88;;;26.32;35.21
50852;BME280;43953;45.508;-122.806;2023-07-31T00:51:51;101045.25;;;26.33;35.03
50852;BME280;43953;45.508;-122.806;2023-07-31T00:52:23;101033.09;;;26.35;35.46
50852;BME280;43953;45.508;-122.806;2023-07-31T00:52:55;101042.19;;;26.35;35.62
50852;BME280;43953;45.508;-122.806;2023-07-31T00:53:27;101038.59;;;26.35;35.67
50852;BME280;43953;45.508;-122.806;2023-07-31T00:53:59;101041.06;;;26.36;35.50
50852;BME280;43953;45.508;-122.806;2023-07-31T00:54:31;101036.38;;;26.37;35.37
50852;BME280;43953;45.508;-122.806;2023-07-31T00:55:04;101036.38;;;26.37;35.41
50852;BME280;43953;45.508;-122.806;2023-07-31T00:55:35;101037.19;;;26.37;35.07
50852;BME280;43953;45.508;-122.806;2023-07-31T00:56:07;101039.13;;;26.37;35.45
50852;BME280;43953;45.508;-122.806;2023-07-31T00:56:40;101031.66;;;26.37;35.07
50852;BME280;43953;45.508;-122.806;2023-07-31T00:57:13;101038.00;;;26.38;34.86
50852;BME280;43953;45.508;-122.806;2023-07-31T00:57:45;101030.53;;;26.38;34.40
50852;BME280;43953;45.508;-122.806;2023-07-31T00:58:17;101029.41;;;26.39;34.24
50852;BME280;43953;45.508;-122.806;2023-07-31T00:58:48;101023.09;;;26.39;34.83
50852;BME280;43953;45.508;-122.806;2023-07-31T00:59:20;101034.13;;;26.39;35.26
50852;BME280;43953;45.508;-122.806;2023-07-31T00:59:52;101029.41;;;26.39;35.24
50852;BME280;43953;45.508;-122.806;2023-07-31T01:00:24;101031.38;;;26.39;34.97
50852;BME280;43953;45.508;-122.806;2023-07-31T01:00:55;101023.91;;;26.39;35.14
50852;BME280;43953;45.508;-122.806;2023-07-31T01:01:28;101035.75;;;26.40;35.38
50852;BME280;43953;45.508;-122.806;2023-07-31T01:02:00;101023.91;;;26.39;35.15
50852;BME280;43953;45.508;-122.806;2023-07-31T01:02:31;101024.72;;;26.40;35.46
50852;BME280;43953;45.508;-122.806;2023-07-31T01:03:03;101025.53;;;26.40;34.54
50852;BME280;43953;45.508;-122.806;2023-07-31T01:03:35;101027.16;;;26.41;34.72
50852;BME280;43953;45.508;-122.806;2023-07-31T01:04:07;101027.16;;;26.41;34.34
50852;BME280;43953;45.508;-122.806;2023-07-31T01:04:41;101027.16;;;26.41;34.05
50852;BME280;43953;45.508;-122.806;2023-07-31T01:05:14;101026.03;;;26.42;33.77
50852;BME280;43953;45.508;-122.806;2023-07-31T01:07:25;101025.72;;;26.44;34.20
50852;BME280;43953;45.508;-122.806;2023-07-31T01:09:42;101018.19;;;26.49;34.42
50852;BME280;43953;45.508;-122.806;2023-07-31T01:10:20;101019.00;;;26.50;34.81
50852;BME280;43953;45.508;-122.806;2023-07-31T01:11:00;101027.78;;;26.52;34.95
50852;BME280;43953;45.508;-122.806;2023-07-31T01:11:38;101031.38;;;26.52;34.73
50852;BME280;43953;45.508;-122.806;2023-07-31T01:12:16;101024.22;;;26.51;35.08
50852;BME280;43953;45.508;-122.806;2023-07-31T01:12:50;101025.84;;;26.52;34.63
50852;BME280;43953;45.508;-122.806;2023-07-31T01:13:23;101030.25;;;26.53;34.77
50852;BME280;43953;45.508;-122.806;2023-07-31T01:13:55;101025.03;;;26.52;34.80
50852;BME280;43953;45.508;-122.806;2023-07-31T01:14:27;101029.41;;;26.53;35.05
50852;BME280;43953;45.508;-122.806;2023-07-31T01:15:07;101030.56;;;26.52;34.75
50852;BME280;43953;45.508;-122.806;2023-07-31T01:15:42;101027.78;;;26.52;35.04
50852;BME280;43953;45.508;-122.806;2023-07-31T01:16:13;101027.78;;;26.52;34.84
50852;BME280;43953;45.508;-122.806;2023-07-31T01:16:45;101025.03;;;26.52;34.57
50852;BME280;43953;45.508;-122.806;2023-07-31T01:17:17;101026.66;;;26.53;34.67
50852;BME280;43953;45.508;-122.806;2023-07-31T01:17:48;101027.50;;;26.53;34.86
50852;BME280;43953;45.508;-122.806;2023-07-31T01:18:20;101028.59;;;26.52;35.04
50852;BME280;43953;45.508;-122.806;2023-07-31T01:18:52;101025.03;;;26.52;35.02
50852;BME280;43953;45.508;-122.806;2023-07-31T01:19:25;101024.22;;;26.51;34.75
50852;BME280;43953;45.508;-122.806;2023-07-31T01:20:03;101022.28;;;26.52;34.83
50852;BME280;43953;45.508;-122.806;2023-07-31T01:20:37;101024.72;;;26.53;34.94
50852;BME280;43953;45.508;-122.806;2023-07-31T01:21:41;101016.75;;;26.52;34.71
50852;BME280;43953;45.508;-122.806;2023-07-31T01:22:46;101020.03;;;26.54;34.92
50852;BME280;43953;45.508;-122.806;2023-07-31T01:23:35;101023.28;;;26.56;34.99
50852;BME280;43953;45.508;-122.806;2023-07-31T01:24:21;101017.16;;;26.59;34.81
50852;BME280;43953;45.508;-122.806;2023-07-31T01:26:13;101020.41;;;26.61;35.26
50852;BME280;43953;45.508;-122.806;2023-07-31T01:27:09;101023.16;;;26.61;34.37
50852;BME280;43953;45.508;-122.806;2023-07-31T01:27:56;101021.53;;;26.60;34.19
50852;BME280;43953;45.508;-122.806;2023-07-31T01:28:53;101020.41;;;26.61;34.24
50852;BME280;43953;45.508;-122.806;2023-07-31T01:29:34;101024.81;;;26.62;34.10
50852;BME280;43953;45.508;-122.806;2023-07-31T01:30:11;101028.41;;;26.63;34.43
50852;BME280;43953;45.508;-122.806;2023-07-31T01:30:48;101024.81;;;26.62;34.57
50852;BME280;43953;45.508;-122.806;2023-07-31T01:31:26;101028.06;;;26.64;33.81
50852;BME280;43953;45.508;-122.806;2023-07-31T01:32:02;101025.63;;;26.63;33.89
50852;BME280;43953;45.508;-122.806;2023-07-31T01:32:35;101020.94;;;26.63;34.11
50852;BME280;43953;45.508;-122.806;2023-07-31T01:33:07;101022.56;;;26.64;34.17
50852;BME280;43953;45.508;-122.806;2023-07-31T01:33:40;101024.50;;;26.64;34.50
50852;BME280;43953;45.508;-122.806;2023-07-31T01:34:12;101021.75;;;26.64;33.92
50852;BME280;43953;45.508;-122.806;2023-07-31T01:34:45;101016.53;;;26.62;34.30
50852;BME280;43953;45.508;-122.806;2023-07-31T01:35:18;101017.66;;;26.61;33.99
50852;BME280;43953;45.508;-122.806;2023-07-31T01:35:50;101022.06;;;26.62;34.17
50852;BME280;43953;45.508;-122.806;2023-07-31T01:36:23;101020.41;;;26.61;34.41
50852;BME280;43953;45.508;-122.806;2023-07-31T01:36:56;101023.97;;;26.62;34.68
50852;BME280;43953;45.508;-122.806;2023-07-31T01:37:29;101031.47;;;26.61;34.03
50852;BME280;43953;45.508;-122.806;2023-07-31T01:38:01;101019.59;;;26.61;34.25
50852;BME280;43953;45.508;-122.806;2023-07-31T01:38:33;101017.66;;;26.61;33.97
50852;BME280;43953;45.508;-122.806;2023-07-31T01:39:04;101025.13;;;26.61;33.68
50852;BME280;43953;45.508;-122.806;2023-07-31T01:39:36;101025.94;;;26.61;34.39
50852;BME280;43953;45.508;-122.806;2023-07-31T01:40:08;101029.84;;;26.60;34.16
50852;BME280;43953;45.508;-122.806;2023-07-31T01:40:41;101020.72;;;26.60;34.66
50852;BME280;43953;45.508;-122.806;2023-07-31T01:41:13;101029.03;;;26.60;34.40
50852;BME280;43953;45.508;-122.806;2023-07-31T01:41:47;101024.31;;;26.60;34.77
50852;BME280;43953;45.508;-122.806;2023-07-31T01:42:19;101024.31;;;26.60;34.26
50852;BME280;43953;45.508;-122.806;2023-07-31T01:42:50;101019.91;;;26.59;34.64
50852;BME280;43953;45.508;-122.806;2023-07-31T01:43:22;101028.22;;;26.59;34.32
50852;BME280;43953;45.508;-122.806;2023-07-31T01:43:55;101018.78;;;26.60;34.14
50852;BME280;43953;45.508;-122.806;2023-07-31T01:44:27;101030.66;;;26.61;34.52
50852;BME280;43953;45.508;-122.806;2023-07-31T01:44:59;101024.31;;;26.60;34.40
50852;BME280;43953;45.508;-122.806;2023-07-31T01:45:31;101025.94;;;26.61;34.54
50852;BME280;43953;45.508;-122.806;2023-07-31T01:46:02;101025.13;;;26.61;34.04
50852;BME280;43953;45.508;-122.806;2023-07-31T01:46:34;101025.94;;;26.61;34.73
50852;BME280;43953;45.508;-122.806;2023-07-31T01:47:06;101026.75;;;26.62;34.12
50852;BME280;43953;45.508;-122.806;2023-07-31T01:47:37;101025.94;;;26.61;34.14
50852;BME280;43953;45.508;-122.806;2023-07-31T01:48:09;101026.75;;;26.62;34.16
50852;BME280;43953;45.508;-122.806;2023-07-31T01:48:41;101027.59;;;26.62;34.66
50852;BME280;43953;45.508;-122.806;2023-07-31T01:49:12;101025.94;;;26.61;34.74
50852;BME280;43953;45.508;-122.806;2023-07-31T01:49:44;101023.97;;;26.62;34.41
50852;BME280;43953;45.508;-122.806;2023-07-31T01:50:16;101032.25;;;26.62;34.83
50852;BME280;43953;45.508;-122.806;2023-07-31T01:50:48;101028.41;;;26.63;34.61
50852;BME280;43953;45.508;-122.806;2023-07-31T01:51:19;101027.59;;;26.62;34.40
50852;BME280;43953;45.508;-122.806;2023-07-31T01:51:51;101024.81;;;26.62;34.39
50852;BME280;43953;45.508;-122.806;2023-07-31T01:52:23;101022.06;;;26.62;34.50
50852;BME280;43953;45.508;-122.806;2023-07-31T01:52:54;101026.44;;;26.63;34.65
50852;BME280;43953;45.508;-122.806;2023-07-31T01:53:26;101023.69;;;26.63;34.50
50852;BME280;43953;45.508;-122.806;2023-07-31T01:53:58;101023.69;;;26.63;34.21
50852;BME280;43953;45.508;-122.806;2023-07-31T01:54:29;101025.31;;;26.64;34.21
50852;BME280;43953;45.508;-122.806;2023-07-31T01:55:01;101018.69;;;26.65;34.00
50852;BME280;43953;45.508;-122.806;2023-07-31T01:55:33;101025.03;;;26.66;34.15
50852;BME280;43953;45.508;-122.806;2023-07-31T01:56:04;101023.06;;;26.66;33.89
50852;BME280;43953;45.508;-122.806;2023-07-31T01:56:36;101026.63;;;26.67;33.11
50852;BME280;43953;45.508;-122.806;2023-07-31T01:57:08;101024.69;;;26.67;33.32
50852;BME280;43953;45.508;-122.806;2023-07-31T01:57:40;101025.50;;;26.68;33.33
50852;BME280;43953;45.508;-122.806;2023-07-31T01:58:11;101019.97;;;26.68;33.24
50852;BME280;43953;45.508;-122.806;2023-07-31T01:58:43;101023.59;;;26.68;33.25
50852;BME280;43953;45.508;-122.806;2023-07-31T01:59:15;101020.81;;;26.68;33.68
50852;BME280;43953;45.508;-122.806;2023-07-31T01:59:46;101019.16;;;26.67;32.71
50852;BME280;43953;45.508;-122.806;2023-07-31T02:00:18;101022.44;;;26.69;32.90
50852;BME280;43953;45.508;-122.806;2023-07-31T02:00:50;101018.53;;;26.70;33.20
50852;BME280;43953;45.508;-122.806;2023-07-31T02:01:21;101023.25;;;26.70;32.49
50852;BME280;43953;45.508;-122.806;2023-07-31T02:01:53;101024.06;;;26.70;32.20
50852;BME280;43953;45.508;-122.806;2023-07-31T02:02:25;101022.44;;;26.69;32.14
50852;BME280;43953;45.508;-122.806;2023-07-31T02:02:56;101023.25;;;26.70;32.49
50852;BME280;43953;45.508;-122.806;2023-07-31T02:03:28;101026.84;;;26.70;32.32
50852;BME280;43953;45.508;-122.806;2023-07-31T02:04:00;101022.44;;;26.69;32.46
50852;BME280;43953;45.508;-122.806;2023-07-31T02:04:31;101026.84;;;26.70;32.54
50852;BME280;43953;45.508;-122.806;2023-07-31T02:05:04;101027.16;;;26.69;33.37
50852;BME280;43953;45.508;-122.806;2023-07-31T02:05:35;101029.09;;;26.68;33.11
50852;BME280;43953;45.508;-122.806;2023-07-31T02:06:07;101030.22;;;26.67;33.26
50852;BME280;43953;45.508;-122.806;2023-07-31T02:06:39;101028.25;;;26.68;33.69
50852;BME280;43953;45.508;-122.806;2023-07-31T02:07:11;101025.50;;;26.68;34.03
50852;BME280;43953;45.508;-122.806;2023-07-31T02:07:42;101029.91;;;26.69;34.17
50852;BME280;43953;45.508;-122.806;2023-07-31T02:08:15;101030.22;;;26.67;33.53
50852;BME280;43953;45.508;-122.806;2023-07-31T02:08:47;101025.50;;;26.68;34.35
50852;BME280;43953;45.508;-122.806;2023-07-31T02:09:18;101029.41;;;26.67;33.76
50852;BME280;43953;45.508;-122.806;2023-07-31T02:09:50;101027.78;;;26.66;33.87
50852;BME280;43953;45.508;-122.806;2023-07-31T02:10:22;101027.78;;;26.66;34.17
50852;BME280;43953;45.508;-122.806;2023-07-31T02:10:53;101029.72;;;26.65;34.01
50852;BME280;43953;45.508;-122.806;2023-07-31T02:11:25;101032.50;;;26.65;33.89
50852;BME280;43953;45.508;-122.806;2023-07-31T02:11:57;101026.13;;;26.65;33.94
50852;BME280;43953;45.508;-122.806;2023-07-31T02:12:28;101029.72;;;26.65;34.05
50852;BME280;43953;45.508;-122.806;2023-07-31T02:13:03;101026.97;;;26.65;34.47
50852;BME280;43953;45.508;-122.806;2023-07-31T02:13:35;101028.59;;;26.66;34.17
50852;BME280;43953;45.508;-122.806;2023-07-31T02:14:06;101021.44;;;26.65;34.03
50852;BME280;43953;45.508;-122.806;2023-07-31T02:14:38;101026.97;;;26.65;34.39
50852;BME280;43953;45.508;-122.806;2023-07-31T02:15:10;101027.78;;;26.66;34.16
50852;BME280;43953;45.508;-122.806;2023-07-31T02:15:41;101025.81;;;26.66;34.36
50852;BME280;43953;45.508;-122.806;2023-07-31T02:16:13;101029.72;;;26.65;34.46
50852;BME280;43953;45.508;-122.806;2023-07-31T02:16:45;101026.97;;;26.65;34.22
50852;BME280;43953;45.508;-122.806;2023-07-31T02:17:16;101023.06;;;26.66;34.65
50852;BME280;43953;45.508;-122.806;2023-07-31T02:17:48;101034.13;;;26.66;34.21
50852;BME280;43953;45.508;-122.806;2023-07-31T02:18:20;101031.34;;;26.66;34.42
50852;BME280;43953;45.508;-122.806;2023-07-31T02:18:53;101033.31;;;26.66;34.24
50852;BME280;43953;45.508;-122.806;2023-07-31T02:19:25;101025.81;;;26.66;34.32
50852;BME280;43953;45.508;-122.806;2023-07-31T02:19:56;101029.41;;;26.67;34.39
50852;BME280;43953;45.508;-122.806;2023-07-31T02:20:28;101026.97;;;26.65;34.40
50852;BME280;43953;45.508;-122.806;2023-07-31T02:21:00;101031.34;;;26.66;34.18
50852;BME280;43953;45.508;-122.806;2023-07-31T02:21:32;101028.59;;;26.66;33.78
50852;BME280;43953;45.508;-122.806;2023-07-31T02:22:03;101029.41;;;26.67;34.08
50852;BME280;43953;45.508;-122.806;2023-07-31T02:22:35;101032.97;;;26.67;33.82
50852;BME280;43953;45.508;-122.806;2023-07-31T02:23:07;101032.97;;;26.67;34.01
50852;BME280;43953;45.508;-122.806;2023-07-31T02:23:39;101032.50;;;26.65;33.26
50852;BME280;43953;45.508;-122.806;2023-07-31T02:24:10;101036.56;;;26.68;33.60
50852;BME280;43953;45.508;-122.806;2023-07-31T02:24:42;101032.69;;;26.69;33.83
50852;BME280;43953;45.508;-122.806;2023-07-31T02:25:14;101031.88;;;26.68;33.65
50852;BME280;43953;45.508;-122.806;2023-07-31T02:25:46;101033.50;;;26.69;33.98
50852;BME280;43953;45.508;-122.806;2023-07-31T02:26:18;101032.34;;;26.70;34.11
50852;BME280;43953;45.508;-122.806;2023-07-31T02:26:49;101033.50;;;26.69;34.24
50852;BME280;43953;45.508;-122.806;2023-07-31T02:27:21;101035.94;;;26.71;34.12
50852;BME280;43953;45.508;-122.806;2023-07-31T02:27:55;101042.59;;;26.70;33.78
50852;BME280;43953;45.508;-122.806;2023-07-31T02:28:27;101040.66;;;26.70;33.87
50852;BME280;43953;45.508;-122.806;2023-07-31T02:28:58;101042.28;;;26.71;33.87
50852;BME280;43953;45.508;-122.806;2023-07-31T02:29:30;101043.91;;;26.72;33.72
50852;BME280;43953;45.508;-122.806;2023-07-31T02:30:02;101038.41;;;26.72;33.88
50852;BME280;43953;45.508;-122.806;2023-07-31T02:30:34;101041.16;;;26.72;34.04
50852;BME280;43953;45.508;-122.806;2023-07-31T02:31:05;101039.22;;;26.73;33.71
50852;BME280;43953;45.508;-122.806;2023-07-31T02:31:37;101038.41;;;26.72;34.11
50852;BME280;43953;45.508;-122.806;2023-07-31T02:32:09;101041.16;;;26.72;34.47
50852;BME280;43953;45.508;-122.806;2023-07-31T02:32:41;101046.69;;;26.72;34.21
50852;BME280;43953;45.508;-122.806;2023-07-31T02:33:12;101043.91;;;26.72;34.07
50852;BME280;43953;45.508;-122.806;2023-07-31T02:33:44;101042.28;;;26.71;34.08
50852;BME280;43953;45.508;-122.806;2023-07-31T02:34:16;101040.66;;;26.70;34.22
50852;BME280;43953;45.508;-122.806;2023-07-31T02:34:47;101040.66;;;26.70;34.13
50852;BME280;43953;45.508;-122.806;2023-07-31T02:35:19;101038.69;;;26.71;33.27
50852;BME280;43953;45.508;-122.806;2023-07-31T02:35:51;101044.53;;;26.69;32.83
50852;BME280;43953;45.508;-122.806;2023-07-31T02:36:22;101044.53;;;26.69;32.59
50852;BME280;43953;45.508;-122.806;2023-07-31T02:36:54;101040.97;;;26.69;32.84
50852;BME280;43953;45.508;-122.806;2023-07-31T02:37:26;101042.91;;;26.68;32.33
50852;BME280;43953;45.508;-122.806;2023-07-31T02:38:00;101037.41;;;26.68;33.28
50852;BME280;43953;45.508;-122.806;2023-07-31T02:38:31;101042.06;;;26.68;33.23
50852;BME280;43953;45.508;-122.806;2023-07-31T02:39:03;101045.69;;;26.68;33.42
50852;BME280;43953;45.508;-122.806;2023-07-31T02:39:35;101053.97;;;26.68;33.33
50852;BME280;43953;45.508;-122.806;2023-07-31T02:40:07;101044.84;;;26.68;33.68
50852;BME280;43953;45.508;-122.806;2023-07-31T02:40:42;101044.34;;;26.66;33.15
50852;BME280;43953;45.508;-122.806;2023-07-31T02:41:13;101046.78;;;26.67;33.36
50852;BME280;43953;45.508;-122.806;2023-07-31T02:41:45;101045.16;;;26.66;33.27
50852;BME280;43953;45.508;-122.806;2023-07-31T02:42:17;101049.06;;;26.65;33.10
50852;BME280;43953;45.508;-122.806;2023-07-31T02:42:48;101051.31;;;26.63;33.35
50852;BME280;43953;45.508;-122.806;2023-07-31T02:43:20;101054.06;;;26.63;33.33
50852;BME280;43953;45.508;-122.806;2023-07-31T02:43:52;101048.53;;;26.63;33.25
50852;BME280;43953;45.508;-122.806;2023-07-31T02:44:23;101044.16;;;26.62;33.52
50852;BME280;43953;45.508;-122.806;2023-07-31T02:44:55;101051.59;;;26.62;33.58
50852;BME280;43953;45.508;-122.806;2023-07-31T02:45:27;101055.22;;;26.62;33.19
50852;BME280;43953;45.508;-122.806;2023-07-31T02:45:59;101047.72;;;26.63;32.80
50852;BME280;43953;45.508;-122.806;2023-07-31T02:46:31;101051.31;;;26.63;33.43
50852;BME280;43953;45.508;-122.806;2023-07-31T02:47:03;101049.34;;;26.64;33.13
50852;BME280;43953;45.508;-122.806;2023-07-31T02:47:34;101048.22;;;26.65;33.38
50852;BME280;43953;45.508;-122.806;2023-07-31T02:48:06;101052.94;;;26.64;33.40
50852;BME280;43953;45.508;-122.806;2023-07-31T02:48:38;101052.13;;;26.64;33.38
50852;BME280;43953;45.508;-122.806;2023-07-31T02:49:10;101055.41;;;26.66;32.97